createdAt,value
2019-01-21T00:02:13.146Z,23.83
2019-01-21T00:04:42.121Z,24.32
2019-01-21T00:07:30.056Z,29.87
2019-01-21T00:10:18.579Z,27.32
2019-01-21T00:24:45.269Z,23.85
2019-01-21T00:27:14.011Z,27.90
2019-01-21T00:29:42.669Z,29.92
2019-01-21T00:32:11.294Z,26.73
2019-01-21T00:34:39.920Z,26.90
2019-01-21T00:37:08.596Z,24.52
2019-01-21T00:39:37.390Z,27.10
2019-01-21T00:42:26.759Z,24.40
2019-01-21T00:44:55.402Z,23.55
2019-01-21T00:47:29.821Z,25.55
2019-01-21T00:49:54.546Z,23.92
2019-01-21T00:52:23.225Z,23.45
2019-01-21T00:54:51.845Z,26.68
2019-01-21T00:57:20.556Z,27.65
2019-01-21T00:59:49.236Z,26.87
2019-01-21T01:02:17.915Z,25.97
2019-01-21T01:04:46.601Z,25.62
2019-01-21T01:07:15.337Z,25.10
2019-01-21T01:09:44.022Z,27.35
2019-01-21T01:12:12.710Z,24.50
2019-01-21T01:14:41.513Z,23.83
2019-01-21T01:17:10.121Z,23.62
2019-01-21T01:19:38.767Z,25.80
2019-01-21T01:22:07.522Z,28.20
2019-01-21T01:24:36.166Z,25.85
2019-01-21T01:27:04.862Z,22.05
2019-01-21T01:29:33.515Z,30.72
2019-01-21T01:32:02.221Z,23.83
2019-01-21T01:34:30.947Z,27.50
2019-01-21T01:36:59.629Z,25.88
2019-01-21T01:39:28.351Z,24.95
2019-01-21T01:41:56.974Z,27.27
2019-01-21T01:44:25.926Z,30.72
2019-01-21T01:46:54.565Z,25.05
2019-01-21T01:49:23.296Z,26.00
2019-01-21T01:51:52.029Z,30.62
2019-01-21T01:54:20.703Z,27.67
2019-01-21T01:56:49.448Z,23.42
2019-01-21T01:59:18.182Z,25.70
2019-01-21T02:01:46.821Z,26.62
2019-01-21T02:04:15.445Z,25.50
2019-01-21T02:06:44.134Z,28.92
2019-01-21T02:09:12.838Z,22.98
2019-01-21T02:11:41.783Z,29.12
2019-01-21T02:14:10.467Z,26.27
2019-01-21T02:16:39.123Z,25.62
2019-01-21T02:19:07.902Z,30.45
2019-01-21T02:21:37.664Z,27.37
2019-01-21T02:24:08.658Z,26.65
2019-01-21T02:27:15.787Z,25.65
2019-01-21T02:30:23.293Z,26.15
2019-01-21T02:33:20.321Z,23.40
2019-01-21T02:36:27.448Z,25.75
2019-01-21T02:39:21.218Z,30.77
2019-01-21T02:42:05.578Z,29.87
2019-01-21T02:45:12.687Z,26.33
2019-01-21T02:48:03.142Z,26.77
2019-01-21T02:51:10.253Z,28.52
2019-01-21T02:54:03.664Z,24.60
2019-01-21T02:57:10.834Z,27.87
2019-01-21T03:00:17.918Z,27.50
2019-01-21T03:03:25.041Z,25.20
2019-01-21T03:06:32.176Z,25.57
2019-01-21T03:09:39.317Z,27.25
2019-01-21T03:12:46.438Z,25.65
2019-01-21T03:15:53.533Z,30.92
2019-01-21T03:18:46.392Z,24.43
2019-01-21T03:21:53.545Z,26.45
2019-01-21T03:25:00.678Z,28.92
2019-01-21T03:28:08.075Z,31.02
2019-01-21T03:34:34.391Z,23.55
2019-01-21T03:37:41.516Z,26.48
2019-01-21T03:40:48.604Z,29.48
2019-01-21T03:43:55.740Z,28.62
2019-01-21T03:46:48.872Z,31.65
2019-01-21T03:49:24.471Z,28.77
2019-01-21T03:52:19.153Z,28.70
2019-01-21T03:55:09.340Z,29.45
2019-01-21T03:58:16.436Z,27.45
2019-01-21T04:01:07.792Z,29.67
2019-01-21T04:04:02.113Z,30.70
2019-01-21T04:07:09.292Z,24.35
2019-01-21T04:10:16.418Z,25.65
2019-01-21T04:13:08.549Z,28.25
2019-01-21T04:16:04.682Z,29.67
2019-01-21T04:18:57.292Z,29.55
2019-01-21T04:22:04.419Z,31.33
2019-01-21T04:25:11.549Z,30.15
2019-01-21T04:28:18.668Z,30.05
2019-01-21T04:31:26.329Z,29.65
2019-01-21T04:34:11.445Z,26.07
2019-01-21T04:37:20.244Z,23.67
2019-01-21T04:40:27.366Z,31.73
2019-01-21T04:43:23.470Z,29.40
2019-01-21T04:46:15.495Z,29.55
2019-01-21T04:49:22.661Z,32.08
2019-01-21T04:52:29.807Z,27.48
2019-01-21T04:55:36.963Z,28.17
2019-01-21T04:58:44.075Z,27.25
2019-01-21T05:01:51.303Z,27.32
2019-01-21T05:04:58.424Z,27.35
2019-01-21T05:07:52.418Z,25.88
2019-01-21T05:10:45.991Z,25.72
2019-01-21T05:17:11.365Z,26.12
2019-01-21T05:20:18.541Z,28.35
2019-01-21T05:23:25.656Z,27.60
2019-01-21T05:26:32.748Z,31.42
2019-01-21T05:29:39.888Z,29.95
2019-01-21T05:32:47.019Z,27.82
2019-01-21T05:35:54.148Z,28.10
2019-01-21T05:39:01.259Z,27.67
2019-01-21T05:42:08.386Z,28.45
2019-01-21T05:45:15.533Z,30.60
2019-01-21T05:50:30.980Z,27.93
2019-01-21T05:53:38.097Z,28.87
2019-01-21T05:56:45.292Z,28.05
2019-01-21T06:02:47.026Z,27.80
2019-01-21T06:05:49.051Z,29.75
2019-01-21T06:08:56.184Z,28.10
2019-01-21T06:11:50.806Z,28.32
2019-01-21T06:14:57.922Z,31.60
2019-01-21T06:18:05.055Z,27.95
2019-01-21T06:21:12.176Z,29.07
2019-01-21T06:23:48.226Z,29.12
2019-01-21T06:26:55.320Z,30.82
2019-01-21T06:30:02.465Z,30.02
2019-01-21T06:33:09.617Z,27.52
2019-01-21T06:36:16.741Z,31.05
2019-01-21T06:39:23.838Z,30.50
2019-01-21T06:42:30.947Z,30.90
2019-01-21T06:45:38.082Z,31.80
2019-01-21T06:48:32.581Z,34.10
2019-01-21T06:51:39.686Z,23.45
2019-01-21T06:54:32.045Z,28.32
2019-01-21T06:57:26.561Z,32.13
2019-01-21T07:00:33.706Z,33.23
2019-01-21T07:06:45.643Z,36.65
2019-01-21T07:09:37.148Z,30.62
2019-01-21T07:12:22.121Z,31.07
2019-01-21T07:15:29.231Z,28.55
2019-01-21T07:18:36.348Z,32.08
2019-01-21T07:21:43.461Z,28.80
2019-01-21T07:24:50.568Z,35.35
2019-01-21T07:27:57.684Z,31.00
2019-01-21T07:31:04.843Z,26.80
2019-01-21T07:34:12.026Z,36.55
2019-01-21T07:36:51.059Z,34.88
2019-01-21T07:39:58.185Z,37.42
2019-01-21T07:43:05.322Z,30.23
2019-01-21T07:46:12.475Z,37.03
2019-01-21T07:49:19.599Z,29.72
2019-01-21T07:52:33.502Z,32.08
2019-01-21T07:55:09.105Z,28.05
2019-01-21T07:58:04.956Z,43.15
2019-01-21T08:01:12.113Z,35.90
2019-01-21T08:04:19.569Z,31.55
2019-01-21T08:06:58.643Z,35.38
2019-01-21T08:10:05.356Z,32.25
2019-01-21T08:13:12.478Z,34.85
2019-01-21T08:16:19.611Z,27.82
2019-01-21T08:19:26.741Z,31.82
2019-01-21T08:22:33.865Z,35.38
2019-01-21T08:25:29.215Z,30.37
2019-01-21T08:28:36.358Z,39.90
2019-01-21T08:31:36.838Z,35.30
2019-01-21T08:34:43.982Z,34.40
2019-01-21T08:37:36.303Z,30.75
2019-01-21T08:40:31.170Z,35.88
2019-01-21T08:43:38.293Z,39.40
2019-01-21T08:46:45.439Z,38.13
2019-01-21T08:49:52.555Z,34.95
2019-01-21T08:52:44.637Z,30.50
2019-01-21T08:55:51.767Z,36.25
2019-01-21T08:58:44.372Z,32.88
2019-01-21T09:01:51.493Z,35.17
2019-01-21T09:04:58.629Z,32.73
2019-01-21T09:07:53.481Z,31.50
2019-01-21T09:10:46.326Z,30.48
2019-01-21T09:13:53.447Z,35.70
2019-01-21T09:17:00.579Z,32.25
2019-01-21T09:20:10.814Z,29.63
2019-01-21T09:23:16.575Z,34.23
2019-01-21T09:26:23.696Z,29.40
2019-01-21T09:29:15.332Z,33.80
2019-01-21T09:32:22.427Z,37.30
2019-01-21T09:35:18.144Z,31.10
2019-01-21T09:38:25.261Z,35.43
2019-01-21T09:41:32.379Z,32.15
2019-01-21T09:44:23.179Z,31.23
2019-01-21T09:46:51.308Z,33.38
2019-01-21T09:49:18.689Z,35.15
2019-01-21T09:52:28.470Z,29.95
2019-01-21T09:54:57.182Z,31.52
2019-01-21T10:00:40.720Z,32.17
2019-01-21T10:03:30.156Z,33.92
2019-01-21T10:06:21.458Z,31.77
2019-01-21T10:09:16.892Z,30.70
2019-01-21T10:12:23.990Z,30.97
2019-01-21T10:15:31.110Z,33.05
2019-01-21T10:18:23.927Z,26.93
2019-01-21T10:21:31.086Z,31.82
2019-01-21T10:24:22.941Z,32.48
2019-01-21T10:27:30.053Z,30.90
2019-01-21T10:30:30.019Z,37.98
2019-01-21T10:33:37.142Z,30.25
2019-01-21T10:36:44.295Z,30.65
2019-01-21T10:39:51.427Z,34.38
2019-01-21T10:42:58.570Z,32.95
2019-01-21T10:45:54.051Z,31.87
2019-01-21T10:48:45.602Z,29.42
2019-01-21T10:51:52.740Z,30.88
2019-01-21T10:54:59.855Z,33.63
2019-01-21T10:58:07.002Z,31.12
2019-01-21T11:01:00.429Z,30.32
2019-01-21T11:04:07.556Z,27.65
2019-01-21T11:07:02.778Z,28.30
2019-01-21T11:09:53.598Z,31.77
2019-01-21T11:12:45.154Z,29.23
2019-01-21T11:15:35.572Z,31.52
2019-01-21T11:18:42.677Z,27.70
2019-01-21T11:21:49.797Z,27.82
2019-01-21T11:24:56.894Z,27.60
2019-01-21T11:28:04.005Z,27.48
2019-01-21T11:31:11.147Z,25.90
2019-01-21T11:34:18.262Z,26.87
2019-01-21T11:37:13.286Z,26.33
2019-01-21T11:40:20.393Z,26.70
2019-01-21T11:43:27.533Z,23.85
2019-01-21T11:46:34.651Z,30.40
2019-01-21T11:49:25.943Z,26.57
2019-01-21T11:52:04.851Z,23.73
2019-01-21T11:55:11.958Z,28.57
2019-01-21T11:58:19.096Z,22.05
2019-01-21T12:01:26.223Z,24.00
2019-01-21T12:04:16.599Z,24.20
2019-01-21T12:07:11.433Z,23.77
2019-01-21T12:10:18.578Z,23.38
2019-01-21T12:13:21.497Z,26.82
2019-01-21T12:16:28.706Z,29.07
2019-01-21T12:19:19.953Z,33.73
2019-01-21T12:22:27.062Z,37.48
2019-01-21T12:25:05.213Z,28.60
2019-01-21T12:27:57.111Z,28.12
2019-01-21T12:31:04.188Z,25.25
2019-01-21T12:34:11.314Z,28.52
2019-01-21T12:37:06.004Z,24.85
2019-01-21T12:39:57.724Z,29.80
2019-01-21T12:43:09.174Z,28.60
2019-01-21T12:45:49.255Z,27.35
2019-01-21T12:48:56.397Z,27.02
2019-01-21T12:52:03.499Z,28.38
2019-01-21T12:55:10.624Z,26.42
2019-01-21T12:58:17.756Z,32.03
2019-01-21T13:01:24.873Z,29.75
2019-01-21T13:04:31.980Z,34.67
2019-01-21T13:07:39.075Z,24.27
2019-01-21T13:10:46.191Z,28.17
2019-01-21T13:13:38.418Z,29.07
2019-01-21T13:16:45.527Z,31.93
2019-01-21T13:19:52.658Z,28.35
2019-01-21T13:22:59.786Z,28.32
2019-01-21T13:25:43.902Z,30.15
2019-01-21T13:28:34.701Z,31.55
2019-01-21T13:31:41.880Z,28.50
2019-01-21T13:34:48.996Z,33.73
2019-01-21T13:37:43.863Z,31.82
2019-01-21T13:40:50.990Z,33.98
2019-01-21T13:43:58.125Z,29.67
2019-01-21T13:46:53.415Z,29.42
2019-01-21T13:49:33.275Z,31.27
2019-01-21T13:52:40.399Z,33.20
2019-01-21T13:55:47.536Z,24.95
2019-01-21T13:58:49.764Z,25.80
2019-01-21T14:01:56.875Z,23.45
2019-01-21T14:04:52.142Z,26.60
2019-01-21T14:07:59.258Z,25.88
2019-01-21T14:11:06.384Z,26.25
2019-01-21T14:13:57.022Z,30.45
2019-01-21T14:16:59.015Z,26.52
2019-01-21T14:20:06.135Z,22.10
2019-01-21T14:23:13.262Z,28.05
2019-01-21T14:26:20.384Z,24.30
2019-01-21T14:29:27.489Z,25.17
2019-01-21T14:32:34.635Z,24.85
2019-01-21T14:35:41.729Z,27.02
2019-01-21T14:38:48.859Z,23.22
2019-01-21T14:41:55.977Z,23.67
2019-01-21T14:45:03.090Z,27.60
2019-01-21T14:48:06.118Z,26.90
2019-01-21T14:51:13.211Z,28.35
2019-01-21T14:54:20.374Z,25.55
2019-01-21T14:57:27.503Z,25.75
2019-01-21T15:00:21.869Z,26.60
2019-01-21T15:03:02.126Z,26.73
2019-01-21T15:06:09.336Z,24.23
2019-01-21T15:09:20.741Z,24.85
2019-01-21T15:12:27.820Z,26.00
2019-01-21T15:15:22.687Z,28.05
2019-01-21T15:18:17.441Z,27.62
2019-01-21T15:21:07.897Z,24.92
2019-01-21T15:24:15.240Z,28.55
2019-01-21T15:27:07.520Z,24.43
2019-01-21T15:30:00.027Z,27.87
2019-01-21T15:32:51.758Z,30.77
2019-01-21T15:35:58.882Z,23.52
2019-01-21T15:39:06.000Z,27.75
2019-01-21T15:42:10.762Z,28.00
2019-01-21T15:45:18.004Z,26.25
2019-01-21T15:48:13.545Z,34.05
2019-01-21T15:51:22.446Z,28.60
2019-01-21T15:54:29.569Z,27.60
2019-01-21T15:57:29.446Z,26.00
2019-01-21T16:00:36.616Z,27.05
2019-01-21T16:03:43.772Z,22.62
2019-01-21T16:06:50.940Z,24.00
2019-01-21T16:09:32.568Z,23.65
2019-01-21T16:12:25.269Z,27.50
2019-01-21T16:18:28.808Z,25.90
2019-01-21T16:33:20.633Z,28.17
2019-01-21T16:36:27.934Z,29.82
2019-01-21T16:39:36.387Z,26.48
2019-01-21T16:51:08.514Z,29.95
2019-01-21T16:57:28.287Z,29.85
2019-01-21T17:00:01.901Z,27.48
2019-01-21T17:05:25.820Z,25.45
2019-01-21T17:07:54.572Z,30.90
2019-01-21T17:10:23.343Z,29.82
2019-01-21T17:12:52.037Z,31.80
2019-01-21T17:15:20.715Z,31.82
2019-01-21T17:17:49.334Z,29.18
2019-01-21T17:20:19.877Z,34.65
2019-01-21T17:22:48.606Z,27.45
2019-01-21T17:25:17.450Z,29.00
2019-01-21T17:27:46.200Z,30.55
2019-01-21T17:30:15.586Z,24.70
2019-01-21T17:32:44.332Z,25.75
2019-01-21T17:35:13.676Z,27.55
2019-01-21T17:37:42.629Z,23.02
2019-01-21T17:40:13.327Z,34.13
2019-01-21T17:42:42.141Z,30.00
2019-01-21T17:45:13.774Z,35.35
2019-01-21T17:47:42.629Z,31.97
2019-01-21T17:50:12.088Z,29.57
2019-01-21T17:52:40.907Z,29.32
2019-01-21T17:55:09.825Z,28.95
2019-01-21T17:57:38.611Z,29.77
2019-01-21T18:03:02.852Z,33.25
2019-01-21T18:05:31.695Z,35.80
2019-01-21T18:08:00.456Z,35.33
2019-01-21T18:10:29.176Z,31.62
2019-01-21T18:12:57.943Z,33.85
2019-01-21T18:15:26.619Z,35.30
2019-01-21T18:17:55.256Z,36.45
2019-01-21T18:20:27.407Z,32.20
2019-01-21T18:23:17.761Z,40.85
2019-01-21T18:28:46.796Z,41.42
2019-01-21T18:31:16.084Z,43.60
2019-01-21T18:33:50.074Z,43.17
2019-01-21T18:36:24.102Z,43.35
2019-01-21T18:38:54.099Z,37.83
2019-01-21T18:41:23.208Z,40.28
2019-01-21T18:43:57.354Z,34.60
2019-01-21T18:46:26.580Z,32.63
2019-01-21T18:49:22.804Z,34.25
2019-01-21T18:55:02.059Z,41.48
2019-01-21T18:57:20.417Z,35.90
2019-01-21T19:02:52.146Z,33.48
2019-01-21T19:05:21.874Z,38.42
2019-01-21T19:14:12.667Z,31.85
2019-01-21T19:16:45.144Z,32.58
2019-01-21T19:21:53.617Z,35.35
2019-01-21T19:27:31.789Z,34.13
2019-01-21T19:35:41.868Z,42.25
2019-01-21T19:38:20.573Z,40.98
2019-01-21T19:40:50.072Z,45.20
2019-01-21T19:44:34.504Z,76.53
2019-01-21T19:45:50.860Z,101.00
2019-01-21T19:48:19.790Z,101.67
2019-01-21T19:53:44.647Z,71.37
2019-01-21T19:58:57.691Z,47.58
2019-01-21T20:01:26.975Z,38.80
2019-01-21T20:04:15.528Z,45.50
2019-01-21T20:06:45.398Z,40.70
2019-01-21T20:14:49.039Z,34.43
2019-01-21T20:20:32.482Z,35.30
2019-01-21T20:26:10.542Z,41.08
2019-01-21T20:28:40.199Z,36.17
2019-01-21T20:31:29.132Z,34.23
2019-01-21T20:33:58.848Z,39.83
2019-01-21T20:37:10.721Z,42.48
2019-01-21T20:42:30.415Z,50.58
2019-01-21T20:47:48.946Z,41.88
2019-01-21T20:50:58.793Z,51.80
2019-01-21T20:53:28.986Z,53.28
2019-01-21T21:05:06.422Z,46.28
2019-01-21T21:07:59.846Z,42.58
2019-01-21T21:10:31.714Z,43.02
2019-01-21T21:13:01.415Z,44.73
2019-01-21T21:18:45.361Z,46.77
2019-01-21T21:21:14.380Z,42.67
2019-01-21T21:23:44.767Z,42.60
2019-01-21T21:26:53.912Z,40.88
2019-01-21T21:32:38.965Z,44.93
2019-01-21T21:35:08.078Z,36.77
2019-01-21T21:37:58.292Z,39.27
2019-01-21T21:40:28.291Z,38.55
2019-01-21T21:43:00.208Z,45.15
2019-01-21T21:46:03.367Z,45.08
2019-01-21T21:57:25.102Z,39.38
2019-01-21T21:59:54.777Z,42.73
2019-01-21T22:02:27.082Z,38.28
2019-01-21T22:04:56.622Z,41.98
2019-01-21T22:10:28.960Z,40.98
2019-01-21T22:13:02.832Z,37.63
2019-01-21T22:15:32.272Z,37.80
2019-01-21T22:18:02.223Z,38.00
2019-01-21T22:20:32.417Z,38.88
2019-01-21T22:23:04.778Z,46.33
2019-01-21T22:26:02.284Z,39.27
2019-01-21T22:28:43.912Z,40.52
2019-01-21T22:31:13.254Z,37.67
2019-01-21T22:33:45.443Z,39.60
2019-01-21T22:36:20.587Z,39.90
2019-01-21T22:38:53.266Z,35.10
2019-01-21T22:41:23.912Z,37.28
2019-01-21T22:43:53.083Z,36.68
2019-01-21T22:52:01.593Z,43.42
2019-01-21T22:55:21.798Z,43.28
2019-01-21T22:57:40.665Z,39.25
2019-01-21T23:03:28.118Z,35.95
2019-01-21T23:05:57.355Z,44.18
2019-01-21T23:08:27.199Z,37.85
2019-01-21T23:10:56.168Z,46.60
2019-01-21T23:16:19.072Z,39.50
2019-01-21T23:18:50.968Z,37.73
2019-01-21T23:21:20.140Z,42.25
2019-01-21T23:24:08.456Z,42.33
2019-01-21T23:29:32.445Z,39.83
2019-01-21T23:32:01.593Z,45.60
2019-01-21T23:34:32.087Z,38.58
2019-01-21T23:37:00.998Z,42.88
2019-01-21T23:39:29.821Z,40.70
2019-01-21T23:41:58.702Z,40.85
2019-01-21T23:44:27.615Z,40.30
2019-01-21T23:46:58.998Z,46.68
2019-01-21T23:49:27.939Z,44.03
2019-01-21T23:51:57.792Z,40.85
2019-01-21T23:54:26.539Z,39.23
2019-01-21T23:56:56.138Z,39.83
2019-01-21T23:59:25.047Z,42.17
